sensor_id;sensor_type;location;lat;lon;timestamp;P1;durP1;ratioP1;P2;durP2;ratioP2
14472;SDS011;7322;50.872;4.386;2023-07-08T00:00:43;5.75;;;4.93;;
14472;SDS011;7322;50.872;4.386;2023-07-08T00:03:15;5.22;;;4.72;;
14472;SDS011;7322;50.872;4.386;2023-07-08T00:05:42;6.93;;;4.90;;
14472;SDS011;7322;50.872;4.386;2023-07-08T00:08:16;5.22;;;4.63;;
14472;SDS011;7322;50.872;4.386;2023-07-08T00:10:47;5.28;;;4.78;;
14472;SDS011;7322;50.872;4.386;2023-07-08T00:13:16;5.18;;;4.50;;
14472;SDS011;7322;50.872;4.386;2023-07-08T00:15:53;5.88;;;4.82;;
14472;SDS011;7322;50.872;4.386;2023-07-08T00:18:21;6.82;;;4.80;;
14472;SDS011;7322;50.872;4.386;2023-07-08T00:20:50;5.75;;;4.95;;
14472;SDS011;7322;50.872;4.386;2023-07-08T00:26:21;6.20;;;4.65;;
14472;SDS011;7322;50.872;4.386;2023-07-08T00:28:52;5.97;;;4.70;;
14472;SDS011;7322;50.872;4.386;2023-07-08T00:31:21;5.20;;;4.70;;
14472;SDS011;7322;50.872;4.386;2023-07-08T00:33:57;5.38;;;4.53;;
14472;SDS011;7322;50.872;4.386;2023-07-08T00:36:25;5.97;;;4.75;;
14472;SDS011;7322;50.872;4.386;2023-07-08T00:38:54;6.30;;;4.60;;
14472;SDS011;7322;50.872;4.386;2023-07-08T00:41:28;6.03;;;4.80;;
14472;SDS011;7322;50.872;4.386;2023-07-08T00:43:58;5.97;;;4.68;;
14472;SDS011;7322;50.872;4.386;2023-07-08T00:49:12;5.00;;;4.50;;
14472;SDS011;7322;50.872;4.386;2023-07-08T00:54:51;5.20;;;4.70;;
14472;SDS011;7322;50.872;4.386;2023-07-08T00:57:20;5.78;;;4.70;;
14472;SDS011;7322;50.872;4.386;2023-07-08T00:59:49;6.28;;;4.80;;
14472;SDS011;7322;50.872;4.386;2023-07-08T01:05:35;7.00;;;4.35;;
14472;SDS011;7322;50.872;4.386;2023-07-08T01:08:11;6.10;;;4.55;;
14472;SDS011;7322;50.872;4.386;2023-07-08T01:10:42;5.80;;;4.32;;
14472;SDS011;7322;50.872;4.386;2023-07-08T01:13:12;5.50;;;4.93;;
14472;SDS011;7322;50.872;4.386;2023-07-08T01:15:46;5.88;;;5.00;;
14472;SDS011;7322;50.872;4.386;2023-07-08T01:18:16;5.32;;;4.57;;
14472;SDS011;7322;50.872;4.386;2023-07-08T01:20:55;6.07;;;4.68;;
14472;SDS011;7322;50.872;4.386;2023-07-08T01:23:35;4.55;;;4.13;;
14472;SDS011;7322;50.872;4.386;2023-07-08T01:26:03;6.20;;;4.50;;
14472;SDS011;7322;50.872;4.386;2023-07-08T01:28:36;6.82;;;4.55;;
14472;SDS011;7322;50.872;4.386;2023-07-08T01:31:04;5.07;;;4.57;;
14472;SDS011;7322;50.872;4.386;2023-07-08T01:33:32;5.20;;;4.63;;
14472;SDS011;7322;50.872;4.386;2023-07-08T01:36:08;6.15;;;4.75;;
14472;SDS011;7322;50.872;4.386;2023-07-08T01:41:22;5.65;;;4.80;;
14472;SDS011;7322;50.872;4.386;2023-07-08T01:43:58;7.30;;;4.90;;
14472;SDS011;7322;50.872;4.386;2023-07-08T01:46:26;6.03;;;4.85;;
14472;SDS011;7322;50.872;4.386;2023-07-08T01:48:56;5.20;;;4.70;;
14472;SDS011;7322;50.872;4.386;2023-07-08T01:51:28;5.10;;;4.40;;
14472;SDS011;7322;50.872;4.386;2023-07-08T01:53:58;5.55;;;4.93;;
14472;SDS011;7322;50.872;4.386;2023-07-08T01:56:33;5.60;;;4.10;;
14472;SDS011;7322;50.872;4.386;2023-07-08T01:59:01;5.25;;;4.75;;
14472;SDS011;7322;50.872;4.386;2023-07-08T02:01:38;5.43;;;4.20;;
14472;SDS011;7322;50.872;4.386;2023-07-08T02:13:16;5.30;;;4.53;;
14472;SDS011;7322;50.872;4.386;2023-07-08T02:15:59;4.93;;;4.20;;
14472;SDS011;7322;50.872;4.386;2023-07-08T02:18:33;6.63;;;4.60;;
14472;SDS011;7322;50.872;4.386;2023-07-08T02:21:18;4.57;;;4.10;;
14472;SDS011;7322;50.872;4.386;2023-07-08T02:23:50;5.50;;;4.90;;
14472;SDS011;7322;50.872;4.386;2023-07-08T02:26:37;6.68;;;4.70;;
14472;SDS011;7322;50.872;4.386;2023-07-08T02:32:23;5.82;;;4.60;;
14472;SDS011;7322;50.872;4.386;2023-07-08T02:34:52;6.43;;;5.00;;
14472;SDS011;7322;50.872;4.386;2023-07-08T02:37:19;6.45;;;4.30;;
14472;SDS011;7322;50.872;4.386;2023-07-08T02:39:50;5.75;;;4.55;;
14472;SDS011;7322;50.872;4.386;2023-07-08T02:42:19;6.63;;;4.68;;
14472;SDS011;7322;50.872;4.386;2023-07-08T02:47:39;6.88;;;4.57;;
14472;SDS011;7322;50.872;4.386;2023-07-08T02:53:15;6.63;;;4.57;;
14472;SDS011;7322;50.872;4.386;2023-07-08T02:55:50;5.18;;;4.63;;
14472;SDS011;7322;50.872;4.386;2023-07-08T02:58:20;7.03;;;4.22;;
14472;SDS011;7322;50.872;4.386;2023-07-08T03:00:51;6.10;;;4.40;;
14472;SDS011;7322;50.872;4.386;2023-07-08T03:03:24;5.00;;;4.60;;
14472;SDS011;7322;50.872;4.386;2023-07-08T03:08:51;4.90;;;4.38;;
14472;SDS011;7322;50.872;4.386;2023-07-08T03:11:20;4.85;;;4.35;;
14472;SDS011;7322;50.872;4.386;2023-07-08T03:13:51;5.88;;;4.50;;
14472;SDS011;7322;50.872;4.386;2023-07-08T03:16:32;4.40;;;4.00;;
14472;SDS011;7322;50.872;4.386;2023-07-08T03:19:01;5.95;;;4.88;;
14472;SDS011;7322;50.872;4.386;2023-07-08T03:21:41;7.15;;;4.93;;
14472;SDS011;7322;50.872;4.386;2023-07-08T03:24:09;5.28;;;4.78;;
14472;SDS011;7322;50.872;4.386;2023-07-08T03:26:48;5.95;;;4.68;;
14472;SDS011;7322;50.872;4.386;2023-07-08T03:32:48;5.18;;;4.68;;
14472;SDS011;7322;50.872;4.386;2023-07-08T03:41:26;6.03;;;4.70;;
14472;SDS011;7322;50.872;4.386;2023-07-08T03:43:54;7.95;;;4.88;;
14472;SDS011;7322;50.872;4.386;2023-07-08T03:46:22;6.38;;;4.63;;
14472;SDS011;7322;50.872;4.386;2023-07-08T03:51:41;5.63;;;4.40;;
14472;SDS011;7322;50.872;4.386;2023-07-08T03:54:23;7.22;;;4.78;;
14472;SDS011;7322;50.872;4.386;2023-07-08T03:56:57;6.00;;;4.43;;
14472;SDS011;7322;50.872;4.386;2023-07-08T04:01:59;7.57;;;4.90;;
14472;SDS011;7322;50.872;4.386;2023-07-08T04:07:19;9.15;;;4.90;;
14472;SDS011;7322;50.872;4.386;2023-07-08T04:09:47;5.15;;;4.65;;
14472;SDS011;7322;50.872;4.386;2023-07-08T04:12:17;5.30;;;4.80;;
14472;SDS011;7322;50.872;4.386;2023-07-08T04:14:46;6.82;;;4.68;;
14472;SDS011;7322;50.872;4.386;2023-07-08T04:20:42;5.95;;;5.05;;
14472;SDS011;7322;50.872;4.386;2023-07-08T04:26:07;5.97;;;4.88;;
14472;SDS011;7322;50.872;4.386;2023-07-08T04:28:35;6.30;;;4.65;;
14472;SDS011;7322;50.872;4.386;2023-07-08T04:36:12;5.38;;;4.60;;
14472;SDS011;7322;50.872;4.386;2023-07-08T04:38:42;5.00;;;4.35;;
14472;SDS011;7322;50.872;4.386;2023-07-08T04:41:11;4.88;;;4.40;;
14472;SDS011;7322;50.872;4.386;2023-07-08T04:46:38;4.80;;;4.35;;
14472;SDS011;7322;50.872;4.386;2023-07-08T04:49:17;6.35;;;4.47;;
14472;SDS011;7322;50.872;4.386;2023-07-08T04:51:53;4.97;;;4.40;;
14472;SDS011;7322;50.872;4.386;2023-07-08T04:54:20;6.03;;;4.90;;
14472;SDS011;7322;50.872;4.386;2023-07-08T04:56:49;5.03;;;4.40;;
14472;SDS011;7322;50.872;4.386;2023-07-08T04:59:19;7.10;;;4.60;;
14472;SDS011;7322;50.872;4.386;2023-07-08T05:04:55;6.07;;;5.00;;
14472;SDS011;7322;50.872;4.386;2023-07-08T05:07:34;5.65;;;4.57;;
14472;SDS011;7322;50.872;4.386;2023-07-08T05:13:10;7.30;;;5.40;;
14472;SDS011;7322;50.872;4.386;2023-07-08T05:15:44;5.38;;;4.63;;
14472;SDS011;7322;50.872;4.386;2023-07-08T05:21:13;5.88;;;4.78;;
14472;SDS011;7322;50.872;4.386;2023-07-08T05:23:56;6.60;;;4.65;;
14472;SDS011;7322;50.872;4.386;2023-07-08T05:26:30;6.28;;;4.95;;
14472;SDS011;7322;50.872;4.386;2023-07-08T05:32:04;7.65;;;4.72;;
14472;SDS011;7322;50.872;4.386;2023-07-08T05:43:43;5.15;;;4.65;;
14472;SDS011;7322;50.872;4.386;2023-07-08T05:46:18;8.23;;;5.20;;
14472;SDS011;7322;50.872;4.386;2023-07-08T05:48:45;6.35;;;4.82;;
14472;SDS011;7322;50.872;4.386;2023-07-08T05:51:22;6.78;;;4.68;;
14472;SDS011;7322;50.872;4.386;2023-07-08T05:53:58;6.97;;;5.20;;
14472;SDS011;7322;50.872;4.386;2023-07-08T05:56:32;5.97;;;4.50;;
14472;SDS011;7322;50.872;4.386;2023-07-08T05:59:09;7.30;;;5.10;;
14472;SDS011;7322;50.872;4.386;2023-07-08T06:01:36;8.10;;;4.75;;
14472;SDS011;7322;50.872;4.386;2023-07-08T06:04:03;5.75;;;4.72;;
14472;SDS011;7322;50.872;4.386;2023-07-08T06:06:34;5.60;;;4.80;;
14472;SDS011;7322;50.872;4.386;2023-07-08T06:09:02;7.75;;;4.82;;
14472;SDS011;7322;50.872;4.386;2023-07-08T06:11:32;5.68;;;4.97;;
14472;SDS011;7322;50.872;4.386;2023-07-08T06:17:05;7.53;;;4.72;;
14472;SDS011;7322;50.872;4.386;2023-07-08T06:19:36;6.50;;;4.82;;
14472;SDS011;7322;50.872;4.386;2023-07-08T06:24:42;5.63;;;4.68;;
14472;SDS011;7322;50.872;4.386;2023-07-08T06:27:10;5.25;;;4.68;;
14472;SDS011;7322;50.872;4.386;2023-07-08T06:29:49;5.45;;;4.88;;
14472;SDS011;7322;50.872;4.386;2023-07-08T06:32:17;6.00;;;4.40;;
14472;SDS011;7322;50.872;4.386;2023-07-08T06:34:52;4.88;;;4.38;;
14472;SDS011;7322;50.872;4.386;2023-07-08T06:37:23;6.95;;;5.13;;
14472;SDS011;7322;50.872;4.386;2023-07-08T06:40:03;6.00;;;5.38;;
14472;SDS011;7322;50.872;4.386;2023-07-08T06:42:37;6.22;;;4.80;;
14472;SDS011;7322;50.872;4.386;2023-07-08T06:45:05;6.05;;;4.72;;
14472;SDS011;7322;50.872;4.386;2023-07-08T06:47:40;5.32;;;4.40;;
14472;SDS011;7322;50.872;4.386;2023-07-08T06:50:07;5.43;;;4.72;;
14472;SDS011;7322;50.872;4.386;2023-07-08T06:52:35;8.38;;;4.57;;
14472;SDS011;7322;50.872;4.386;2023-07-08T06:55:10;6.10;;;4.68;;
14472;SDS011;7322;50.872;4.386;2023-07-08T06:57:54;5.68;;;4.35;;
14472;SDS011;7322;50.872;4.386;2023-07-08T07:00:40;4.88;;;4.28;;
14472;SDS011;7322;50.872;4.386;2023-07-08T07:03:10;6.85;;;4.63;;
14472;SDS011;7322;50.872;4.386;2023-07-08T07:05:46;5.45;;;4.75;;
14472;SDS011;7322;50.872;4.386;2023-07-08T07:08:15;6.25;;;4.90;;
14472;SDS011;7322;50.872;4.386;2023-07-08T07:10:42;5.30;;;4.38;;
14472;SDS011;7322;50.872;4.386;2023-07-08T07:15:59;6.88;;;5.30;;
14472;SDS011;7322;50.872;4.386;2023-07-08T07:18:26;7.82;;;5.05;;
14472;SDS011;7322;50.872;4.386;2023-07-08T07:20:53;7.40;;;4.88;;
14472;SDS011;7322;50.872;4.386;2023-07-08T07:23:21;8.18;;;4.72;;
14472;SDS011;7322;50.872;4.386;2023-07-08T07:25:51;7.68;;;5.15;;
14472;SDS011;7322;50.872;4.386;2023-07-08T07:28:19;6.00;;;4.70;;
14472;SDS011;7322;50.872;4.386;2023-07-08T07:30:54;8.18;;;4.97;;
14472;SDS011;7322;50.872;4.386;2023-07-08T07:33:23;7.97;;;4.90;;
14472;SDS011;7322;50.872;4.386;2023-07-08T07:35:51;6.47;;;5.03;;
14472;SDS011;7322;50.872;4.386;2023-07-08T07:38:18;8.63;;;5.47;;
14472;SDS011;7322;50.872;4.386;2023-07-08T07:40:47;7.10;;;5.30;;
14472;SDS011;7322;50.872;4.386;2023-07-08T07:43:14;7.00;;;5.43;;
14472;SDS011;7322;50.872;4.386;2023-07-08T07:45:41;6.28;;;4.95;;
14472;SDS011;7322;50.872;4.386;2023-07-08T07:48:10;8.40;;;5.50;;
14472;SDS011;7322;50.872;4.386;2023-07-08T07:50:37;7.72;;;5.38;;
14472;SDS011;7322;50.872;4.386;2023-07-08T07:53:04;9.70;;;5.88;;
14472;SDS011;7322;50.872;4.386;2023-07-08T07:55:31;8.77;;;5.28;;
14472;SDS011;7322;50.872;4.386;2023-07-08T07:57:58;9.35;;;5.78;;
14472;SDS011;7322;50.872;4.386;2023-07-08T08:00:25;6.38;;;5.50;;
14472;SDS011;7322;50.872;4.386;2023-07-08T08:02:52;6.47;;;5.38;;
14472;SDS011;7322;50.872;4.386;2023-07-08T08:05:20;8.25;;;5.85;;
14472;SDS011;7322;50.872;4.386;2023-07-08T08:07:49;8.10;;;5.93;;
14472;SDS011;7322;50.872;4.386;2023-07-08T08:10:16;8.15;;;5.88;;
14472;SDS011;7322;50.872;4.386;2023-07-08T08:12:44;7.90;;;6.40;;
14472;SDS011;7322;50.872;4.386;2023-07-08T08:15:15;9.65;;;6.15;;
14472;SDS011;7322;50.872;4.386;2023-07-08T08:17:42;7.40;;;5.35;;
14472;SDS011;7322;50.872;4.386;2023-07-08T08:20:13;7.13;;;6.40;;
14472;SDS011;7322;50.872;4.386;2023-07-08T08:22:42;8.50;;;6.80;;
14472;SDS011;7322;50.872;4.386;2023-07-08T08:25:09;8.13;;;6.75;;
14472;SDS011;7322;50.872;4.386;2023-07-08T08:27:36;7.40;;;6.57;;
14472;SDS011;7322;50.872;4.386;2023-07-08T08:30:04;7.07;;;6.15;;
14472;SDS011;7322;50.872;4.386;2023-07-08T08:32:32;7.85;;;6.32;;
14472;SDS011;7322;50.872;4.386;2023-07-08T08:34:59;6.63;;;5.95;;
14472;SDS011;7322;50.872;4.386;2023-07-08T08:37:26;6.95;;;6.35;;
14472;SDS011;7322;50.872;4.386;2023-07-08T08:39:54;6.88;;;6.13;;
14472;SDS011;7322;50.872;4.386;2023-07-08T08:42:25;8.10;;;6.75;;
14472;SDS011;7322;50.872;4.386;2023-07-08T08:44:54;8.18;;;7.25;;
14472;SDS011;7322;50.872;4.386;2023-07-08T08:47:28;8.23;;;6.78;;
14472;SDS011;7322;50.872;4.386;2023-07-08T08:50:02;8.63;;;6.95;;
14472;SDS011;7322;50.872;4.386;2023-07-08T08:52:40;8.00;;;6.40;;
14472;SDS011;7322;50.872;4.386;2023-07-08T08:55:12;8.27;;;6.32;;
14472;SDS011;7322;50.872;4.386;2023-07-08T08:57:43;8.70;;;6.68;;
14472;SDS011;7322;50.872;4.386;2023-07-08T09:00:15;7.88;;;6.30;;
14472;SDS011;7322;50.872;4.386;2023-07-08T09:02:51;8.25;;;6.82;;
14472;SDS011;7322;50.872;4.386;2023-07-08T09:05:25;8.55;;;6.82;;
14472;SDS011;7322;50.872;4.386;2023-07-08T09:07:58;10.23;;;7.63;;
14472;SDS011;7322;50.872;4.386;2023-07-08T09:10:35;8.07;;;7.13;;
14472;SDS011;7322;50.872;4.386;2023-07-08T09:13:10;11.93;;;7.57;;
14472;SDS011;7322;50.872;4.386;2023-07-08T09:15:45;10.77;;;7.63;;
14472;SDS011;7322;50.872;4.386;2023-07-08T09:18:16;9.60;;;7.57;;
14472;SDS011;7322;50.872;4.386;2023-07-08T09:20:48;11.00;;;7.88;;
14472;SDS011;7322;50.872;4.386;2023-07-08T09:23:17;9.98;;;8.07;;
14472;SDS011;7322;50.872;4.386;2023-07-08T09:25:51;8.00;;;7.20;;
14472;SDS011;7322;50.872;4.386;2023-07-08T09:28:29;8.98;;;7.60;;
14472;SDS011;7322;50.872;4.386;2023-07-08T09:31:02;8.60;;;7.70;;
14472;SDS011;7322;50.872;4.386;2023-07-08T09:33:34;11.95;;;7.90;;
14472;SDS011;7322;50.872;4.386;2023-07-08T09:36:18;13.38;;;8.50;;
14472;SDS011;7322;50.872;4.386;2023-07-08T09:38:48;11.65;;;8.30;;
14472;SDS011;7322;50.872;4.386;2023-07-08T09:41:23;9.93;;;8.05;;
14472;SDS011;7322;50.872;4.386;2023-07-08T09:44:03;10.07;;;7.07;;
14472;SDS011;7322;50.872;4.386;2023-07-08T09:46:35;9.20;;;7.40;;
14472;SDS011;7322;50.872;4.386;2023-07-08T09:49:09;10.15;;;7.32;;
14472;SDS011;7322;50.872;4.386;2023-07-08T09:51:41;11.68;;;7.75;;
14472;SDS011;7322;50.872;4.386;2023-07-08T09:54:09;9.23;;;7.13;;
14472;SDS011;7322;50.872;4.386;2023-07-08T09:56:40;9.52;;;7.03;;
14472;SDS011;7322;50.872;4.386;2023-07-08T09:59:11;10.75;;;7.43;;
14472;SDS011;7322;50.872;4.386;2023-07-08T10:01:40;9.55;;;7.43;;
14472;SDS011;7322;50.872;4.386;2023-07-08T10:04:08;10.43;;;7.22;;
14472;SDS011;7322;50.872;4.386;2023-07-08T10:06:35;8.93;;;6.80;;
14472;SDS011;7322;50.872;4.386;2023-07-08T10:09:03;8.70;;;6.65;;
14472;SDS011;7322;50.872;4.386;2023-07-08T10:11:35;9.95;;;6.70;;
14472;SDS011;7322;50.872;4.386;2023-07-08T10:14:15;9.75;;;7.65;;
14472;SDS011;7322;50.872;4.386;2023-07-08T10:16:49;10.07;;;7.43;;
14472;SDS011;7322;50.872;4.386;2023-07-08T10:19:17;10.82;;;7.70;;
14472;SDS011;7322;50.872;4.386;2023-07-08T10:21:50;8.07;;;7.28;;
14472;SDS011;7322;50.872;4.386;2023-07-08T10:24:34;9.82;;;7.43;;
14472;SDS011;7322;50.872;4.386;2023-07-08T10:27:15;9.45;;;7.80;;
14472;SDS011;7322;50.872;4.386;2023-07-08T10:29:51;9.38;;;7.63;;
14472;SDS011;7322;50.872;4.386;2023-07-08T10:32:23;10.02;;;7.90;;
14472;SDS011;7322;50.872;4.386;2023-07-08T10:34:59;8.95;;;7.32;;
14472;SDS011;7322;50.872;4.386;2023-07-08T10:37:36;11.65;;;7.80;;
14472;SDS011;7322;50.872;4.386;2023-07-08T10:40:20;9.90;;;7.38;;
14472;SDS011;7322;50.872;4.386;2023-07-08T10:43:04;10.05;;;7.82;;
14472;SDS011;7322;50.872;4.386;2023-07-08T10:45:46;8.82;;;7.65;;
14472;SDS011;7322;50.872;4.386;2023-07-08T10:48:30;11.50;;;8.10;;
14472;SDS011;7322;50.872;4.386;2023-07-08T10:51:11;8.95;;;7.45;;
14472;SDS011;7322;50.872;4.386;2023-07-08T10:53:49;8.48;;;6.80;;
14472;SDS011;7322;50.872;4.386;2023-07-08T10:56:28;8.23;;;7.07;;
14472;SDS011;7322;50.872;4.386;2023-07-08T10:59:09;10.18;;;7.97;;
14472;SDS011;7322;50.872;4.386;2023-07-08T11:01:48;9.30;;;7.00;;
14472;SDS011;7322;50.872;4.386;2023-07-08T11:04:40;9.00;;;7.85;;
14472;SDS011;7322;50.872;4.386;2023-07-08T11:07:19;9.23;;;7.30;;
14472;SDS011;7322;50.872;4.386;2023-07-08T11:10:00;8.75;;;6.95;;
14472;SDS011;7322;50.872;4.386;2023-07-08T11:12:33;13.02;;;7.55;;
14472;SDS011;7322;50.872;4.386;2023-07-08T11:15:08;10.27;;;8.13;;
14472;SDS011;7322;50.872;4.386;2023-07-08T11:17:42;10.38;;;7.20;;
14472;SDS011;7322;50.872;4.386;2023-07-08T11:20:16;11.10;;;7.85;;
14472;SDS011;7322;50.872;4.386;2023-07-08T11:22:47;9.95;;;7.50;;
14472;SDS011;7322;50.872;4.386;2023-07-08T11:25:20;9.82;;;7.47;;
14472;SDS011;7322;50.872;4.386;2023-07-08T11:27:52;10.70;;;7.70;;
14472;SDS011;7322;50.872;4.386;2023-07-08T11:30:26;10.60;;;7.82;;
14472;SDS011;7322;50.872;4.386;2023-07-08T11:32:59;10.68;;;7.60;;
14472;SDS011;7322;50.872;4.386;2023-07-08T11:35:33;10.35;;;7.68;;
14472;SDS011;7322;50.872;4.386;2023-07-08T11:38:08;8.50;;;6.97;;
14472;SDS011;7322;50.872;4.386;2023-07-08T11:40:50;9.05;;;7.20;;
14472;SDS011;7322;50.872;4.386;2023-07-08T11:43:20;7.50;;;6.68;;
14472;SDS011;7322;50.872;4.386;2023-07-08T11:45:50;10.60;;;7.25;;
14472;SDS011;7322;50.872;4.386;2023-07-08T11:48:22;7.57;;;6.50;;
14472;SDS011;7322;50.872;4.386;2023-07-08T11:50:53;10.95;;;6.82;;
14472;SDS011;7322;50.872;4.386;2023-07-08T11:53:34;8.70;;;6.78;;
14472;SDS011;7322;50.872;4.386;2023-07-08T11:56:03;7.85;;;6.55;;
14472;SDS011;7322;50.872;4.386;2023-07-08T11:58:53;9.15;;;7.00;;
14472;SDS011;7322;50.872;4.386;2023-07-08T12:01:28;8.30;;;6.28;;
14472;SDS011;7322;50.872;4.386;2023-07-08T12:04:16;9.50;;;6.30;;
14472;SDS011;7322;50.872;4.386;2023-07-08T12:07:02;8.95;;;6.55;;
14472;SDS011;7322;50.872;4.386;2023-07-08T12:09:37;7.78;;;6.05;;
14472;SDS011;7322;50.872;4.386;2023-07-08T12:12:07;9.88;;;5.93;;
14472;SDS011;7322;50.872;4.386;2023-07-08T12:14:46;10.68;;;6.60;;
14472;SDS011;7322;50.872;4.386;2023-07-08T12:17:14;7.55;;;6.68;;
14472;SDS011;7322;50.872;4.386;2023-07-08T12:19:42;7.78;;;6.15;;
14472;SDS011;7322;50.872;4.386;2023-07-08T12:22:13;7.65;;;6.30;;
14472;SDS011;7322;50.872;4.386;2023-07-08T12:24:41;8.95;;;6.10;;
14472;SDS011;7322;50.872;4.386;2023-07-08T12:27:09;7.13;;;6.13;;
14472;SDS011;7322;50.872;4.386;2023-07-08T12:29:38;8.65;;;5.85;;
14472;SDS011;7322;50.872;4.386;2023-07-08T12:32:05;7.55;;;6.15;;
14472;SDS011;7322;50.872;4.386;2023-07-08T12:34:36;8.25;;;6.20;;
14472;SDS011;7322;50.872;4.386;2023-07-08T12:37:04;7.70;;;6.32;;
14472;SDS011;7322;50.872;4.386;2023-07-08T12:39:36;9.30;;;6.03;;
14472;SDS011;7322;50.872;4.386;2023-07-08T12:42:07;8.80;;;5.68;;
14472;SDS011;7322;50.872;4.386;2023-07-08T12:44:37;7.00;;;5.63;;
14472;SDS011;7322;50.872;4.386;2023-07-08T12:47:07;9.13;;;6.00;;
14472;SDS011;7322;50.872;4.386;2023-07-08T12:49:34;8.15;;;6.30;;
14472;SDS011;7322;50.872;4.386;2023-07-08T12:52:03;8.27;;;6.53;;
14472;SDS011;7322;50.872;4.386;2023-07-08T12:54:30;8.63;;;5.85;;
14472;SDS011;7322;50.872;4.386;2023-07-08T12:56:59;7.55;;;6.15;;
14472;SDS011;7322;50.872;4.386;2023-07-08T12:59:27;8.98;;;6.47;;
14472;SDS011;7322;50.872;4.386;2023-07-08T13:01:55;6.97;;;5.93;;
14472;SDS011;7322;50.872;4.386;2023-07-08T13:04:22;7.43;;;6.13;;
14472;SDS011;7322;50.872;4.386;2023-07-08T13:06:51;9.88;;;6.30;;
14472;SDS011;7322;50.872;4.386;2023-07-08T13:12:12;9.68;;;6.05;;
14472;SDS011;7322;50.872;4.386;2023-07-08T13:14:41;8.07;;;5.70;;
14472;SDS011;7322;50.872;4.386;2023-07-08T13:17:11;10.20;;;5.55;;
14472;SDS011;7322;50.872;4.386;2023-07-08T13:19:39;10.57;;;6.10;;
14472;SDS011;7322;50.872;4.386;2023-07-08T13:22:10;10.90;;;6.00;;
14472;SDS011;7322;50.872;4.386;2023-07-08T13:24:40;11.38;;;5.90;;
14472;SDS011;7322;50.872;4.386;2023-07-08T13:27:08;13.35;;;6.38;;
14472;SDS011;7322;50.872;4.386;2023-07-08T13:29:42;10.90;;;6.30;;
14472;SDS011;7322;50.872;4.386;2023-07-08T13:32:10;10.07;;;6.13;;
14472;SDS011;7322;50.872;4.386;2023-07-08T13:34:37;10.85;;;6.50;;
14472;SDS011;7322;50.872;4.386;2023-07-08T13:37:11;7.45;;;6.03;;
14472;SDS011;7322;50.872;4.386;2023-07-08T13:39:42;9.20;;;6.20;;
14472;SDS011;7322;50.872;4.386;2023-07-08T13:42:11;6.85;;;5.78;;
14472;SDS011;7322;50.872;4.386;2023-07-08T13:44:42;8.52;;;6.10;;
14472;SDS011;7322;50.872;4.386;2023-07-08T13:47:19;9.07;;;5.47;;
14472;SDS011;7322;50.872;4.386;2023-07-08T13:49:48;7.38;;;5.65;;
14472;SDS011;7322;50.872;4.386;2023-07-08T13:52:22;7.70;;;5.05;;
14472;SDS011;7322;50.872;4.386;2023-07-08T13:54:50;8.48;;;5.38;;
14472;SDS011;7322;50.872;4.386;2023-07-08T13:57:21;6.03;;;5.43;;
14472;SDS011;7322;50.872;4.386;2023-07-08T13:59:49;8.32;;;5.38;;
14472;SDS011;7322;50.872;4.386;2023-07-08T14:02:17;8.32;;;5.40;;
14472;SDS011;7322;50.872;4.386;2023-07-08T14:04:46;7.88;;;5.32;;
14472;SDS011;7322;50.872;4.386;2023-07-08T14:07:15;9.60;;;5.97;;
14472;SDS011;7322;50.872;4.386;2023-07-08T14:09:45;7.55;;;5.68;;
14472;SDS011;7322;50.872;4.386;2023-07-08T14:12:13;7.65;;;5.22;;
14472;SDS011;7322;50.872;4.386;2023-07-08T14:14:40;7.70;;;6.05;;
14472;SDS011;7322;50.872;4.386;2023-07-08T14:17:08;7.90;;;5.47;;
14472;SDS011;7322;50.872;4.386;2023-07-08T14:19:38;7.28;;;5.13;;
14472;SDS011;7322;50.872;4.386;2023-07-08T14:22:16;7.60;;;5.22;;
14472;SDS011;7322;50.872;4.386;2023-07-08T14:24:50;9.13;;;5.43;;
14472;SDS011;7322;50.872;4.386;2023-07-08T14:27:17;8.10;;;5.88;;
14472;SDS011;7322;50.872;4.386;2023-07-08T14:29:46;8.10;;;5.10;;
14472;SDS011;7322;50.872;4.386;2023-07-08T14:32:17;8.20;;;5.60;;
14472;SDS011;7322;50.872;4.386;2023-07-08T14:34:48;9.60;;;5.63;;
14472;SDS011;7322;50.872;4.386;2023-07-08T14:37:18;7.50;;;5.35;;
14472;SDS011;7322;50.872;4.386;2023-07-08T14:39:46;7.07;;;5.32;;
14472;SDS011;7322;50.872;4.386;2023-07-08T14:42:16;8.10;;;5.40;;
14472;SDS011;7322;50.872;4.386;2023-07-08T14:44:44;9.38;;;5.45;;
14472;SDS011;7322;50.872;4.386;2023-07-08T14:47:14;7.78;;;5.20;;
14472;SDS011;7322;50.872;4.386;2023-07-08T14:49:42;5.90;;;5.15;;
14472;SDS011;7322;50.872;4.386;2023-07-08T14:52:10;10.63;;;5.03;;
14472;SDS011;7322;50.872;4.386;2023-07-08T14:54:37;6.07;;;5.20;;
14472;SDS011;7322;50.872;4.386;2023-07-08T14:57:07;6.07;;;4.80;;
14472;SDS011;7322;50.872;4.386;2023-07-08T14:59:38;7.22;;;5.38;;
14472;SDS011;7322;50.872;4.386;2023-07-08T15:02:18;6.95;;;5.15;;
14472;SDS011;7322;50.872;4.386;2023-07-08T15:04:47;6.28;;;4.85;;
14472;SDS011;7322;50.872;4.386;2023-07-08T15:07:14;5.78;;;5.18;;
14472;SDS011;7322;50.872;4.386;2023-07-08T15:09:42;5.63;;;5.00;;
14472;SDS011;7322;50.872;4.386;2023-07-08T15:12:09;7.85;;;5.50;;
14472;SDS011;7322;50.872;4.386;2023-07-08T15:14:39;5.57;;;4.90;;
14472;SDS011;7322;50.872;4.386;2023-07-08T15:17:10;7.03;;;5.20;;
14472;SDS011;7322;50.872;4.386;2023-07-08T15:19:41;6.93;;;5.13;;
14472;SDS011;7322;50.872;4.386;2023-07-08T15:22:09;8.57;;;5.15;;
14472;SDS011;7322;50.872;4.386;2023-07-08T15:24:36;6.75;;;5.45;;
14472;SDS011;7322;50.872;4.386;2023-07-08T15:27:03;7.45;;;5.55;;
14472;SDS011;7322;50.872;4.386;2023-07-08T15:29:31;6.32;;;4.60;;
14472;SDS011;7322;50.872;4.386;2023-07-08T15:32:01;6.00;;;4.75;;
14472;SDS011;7322;50.872;4.386;2023-07-08T15:34:28;7.07;;;5.20;;
14472;SDS011;7322;50.872;4.386;2023-07-08T15:36:55;5.63;;;4.80;;
14472;SDS011;7322;50.872;4.386;2023-07-08T15:39:22;5.47;;;4.78;;
14472;SDS011;7322;50.872;4.386;2023-07-08T15:41:49;6.72;;;5.55;;
14472;SDS011;7322;50.872;4.386;2023-07-08T15:44:18;7.68;;;5.63;;
14472;SDS011;7322;50.872;4.386;2023-07-08T15:46:51;6.43;;;5.30;;
14472;SDS011;7322;50.872;4.386;2023-07-08T15:49:20;7.65;;;5.28;;
14472;SDS011;7322;50.872;4.386;2023-07-08T15:51:48;6.68;;;5.97;;
14472;SDS011;7322;50.872;4.386;2023-07-08T15:54:16;7.05;;;6.03;;
14472;SDS011;7322;50.872;4.386;2023-07-08T15:56:45;8.55;;;6.05;;
14472;SDS011;7322;50.872;4.386;2023-07-08T15:59:14;8.93;;;6.22;;
14472;SDS011;7322;50.872;4.386;2023-07-08T16:01:44;7.95;;;5.75;;
14472;SDS011;7322;50.872;4.386;2023-07-08T16:04:15;8.45;;;6.20;;
14472;SDS011;7322;50.872;4.386;2023-07-08T16:06:49;7.53;;;6.15;;
14472;SDS011;7322;50.872;4.386;2023-07-08T16:09:16;6.80;;;5.50;;
14472;SDS011;7322;50.872;4.386;2023-07-08T16:11:44;7.50;;;5.40;;
14472;SDS011;7322;50.872;4.386;2023-07-08T16:14:12;7.68;;;5.30;;
14472;SDS011;7322;50.872;4.386;2023-07-08T16:16:41;6.72;;;5.38;;
14472;SDS011;7322;50.872;4.386;2023-07-08T16:19:09;6.25;;;5.25;;
14472;SDS011;7322;50.872;4.386;2023-07-08T16:21:38;6.72;;;5.78;;
14472;SDS011;7322;50.872;4.386;2023-07-08T16:24:06;7.88;;;5.85;;
14472;SDS011;7322;50.872;4.386;2023-07-08T16:26:33;6.82;;;5.40;;
14472;SDS011;7322;50.872;4.386;2023-07-08T16:29:00;7.00;;;5.70;;
14472;SDS011;7322;50.872;4.386;2023-07-08T16:31:28;7.30;;;5.70;;
14472;SDS011;7322;50.872;4.386;2023-07-08T16:33:56;7.00;;;5.70;;
14472;SDS011;7322;50.872;4.386;2023-07-08T16:36:25;7.85;;;6.00;;
14472;SDS011;7322;50.872;4.386;2023-07-08T16:38:54;7.88;;;5.82;;
14472;SDS011;7322;50.872;4.386;2023-07-08T16:41:22;6.80;;;5.72;;
14472;SDS011;7322;50.872;4.386;2023-07-08T16:43:51;7.57;;;5.60;;
14472;SDS011;7322;50.872;4.386;2023-07-08T16:46:20;7.80;;;5.85;;
14472;SDS011;7322;50.872;4.386;2023-07-08T16:48:47;7.70;;;5.57;;
14472;SDS011;7322;50.872;4.386;2023-07-08T16:51:15;7.95;;;5.55;;
14472;SDS011;7322;50.872;4.386;2023-07-08T16:53:43;6.63;;;5.43;;
14472;SDS011;7322;50.872;4.386;2023-07-08T16:56:15;7.18;;;5.28;;
14472;SDS011;7322;50.872;4.386;2023-07-08T16:58:44;7.18;;;5.40;;
14472;SDS011;7322;50.872;4.386;2023-07-08T17:01:13;8.40;;;5.53;;
14472;SDS011;7322;50.872;4.386;2023-07-08T17:03:44;6.25;;;5.38;;
14472;SDS011;7322;50.872;4.386;2023-07-08T17:06:12;5.63;;;5.07;;